Time;durP1;ratioP1;P1;durP2;ratioP2;P2;SDS_P1;SDS_P2;PMS_P1;PMS_P2;Temp;Humidity;BMP_temperature;BMP_pressure;BME280_temperature;BME280_humidity;BME280_pressure;Samples;Min_cycle;Max_cycle;Signal;HPM_P1;HPM_P2
2021/06/05 00:00:08;;;;;;;12.05;11.05;;;;;;;19.34;100.00;101225.06;5063200;28;20646;-75
2021/06/05 00:02:40;;;;;;;11.40;10.35;;;;;;;19.48;100.00;101223.03;5045114;28;20232;-76
2021/06/05 00:05:07;;;;;;;10.65;9.57;;;;;;;19.47;100.00;101222.22;5046018;28;20186;-77
2021/06/05 00:07:33;;;;;;;9.77;8.95;;;;;;;19.63;100.00;101219.84;5062489;28;20283;-76
2021/06/05 00:09:59;;;;;;;10.07;9.18;;;;;;;19.60;100.00;101221.31;5070298;28;20175;-74
2021/06/05 00:12:27;;;;;;;9.27;8.38;;;;;;;19.62;100.00;101216.28;5094999;28;20309;-76
2021/06/05 00:14:58;;;;;;;8.75;7.95;;;;;;;19.50;100.00;101227.06;5099194;28;20192;-75
2021/06/05 00:17:24;;;;;;;8.32;7.65;;;;;;;19.56;100.00;101227.75;5097809;28;20249;-77
2021/06/05 00:19:54;;;;;;;9.57;7.35;;;;;;;19.70;100.00;101221.81;5099543;28;20201;-76
2021/06/05 00:22:35;;;;;;;8.13;7.43;;;;;;;19.73;100.00;101218.44;5082504;28;20585;-77
2021/06/05 00:25:11;;;;;;;8.65;7.88;;;;;;;19.83;100.00;101220.94;5098444;28;20189;-76
2021/06/05 00:27:49;;;;;;;7.57;6.95;;;;;;;19.73;100.00;101226.72;5100613;28;20194;-75
2021/06/05 00:30:23;;;;;;;7.65;6.95;;;;;;;19.59;100.00;101224.38;5097886;28;20229;-75
2021/06/05 00:32:53;;;;;;;7.18;6.57;;;;;;;19.64;100.00;101215.97;5081252;28;20598;-77
2021/06/05 00:35:21;;;;;;;7.10;6.50;;;;;;;19.60;100.00;101226.81;5098656;28;20266;-76
2021/06/05 00:37:53;;;;;;;7.50;6.90;;;;;;;19.68;100.00;101226.84;5082987;28;20258;-74
2021/06/05 00:40:42;;;;;;;8.48;7.65;;;;;;;19.78;100.00;101223.81;5080995;28;20629;-75
2021/06/05 00:43:12;;;;;;;8.95;8.02;;;;;;;19.74;100.00;101216.47;5063490;28;20650;-76
2021/06/05 00:45:42;;;;;;;7.97;7.28;;;;;;;19.67;100.00;101216.97;5077053;28;20297;-75
2021/06/05 00:48:12;;;;;;;8.75;8.15;;;;;;;19.32;100.00;101217.13;5062304;28;20213;-75
2021/06/05 00:50:50;;;;;;;8.85;8.15;;;;;;;19.48;100.00;101207.28;5061273;28;20217;-75
2021/06/05 00:53:27;;;;;;;8.07;7.28;;;;;;;19.37;100.00;101221.66;5048421;28;20186;-73
2021/06/05 00:56:11;;;;;;;7.30;6.70;;;;;;;19.04;100.00;101223.06;5044764;28;20305;-76
2021/06/05 00:58:37;;;;;;;7.80;7.00;;;;;;;19.26;100.00;101203.78;5048396;28;20220;-74
2021/06/05 01:01:15;;;;;;;7.45;6.85;;;;;;;19.43;100.00;101223.16;5037433;28;20233;-76
2021/06/05 01:03:51;;;;;;;7.70;7.05;;;;;;;19.50;100.00;101220.75;5049039;28;20186;-75
2021/06/05 01:06:40;;;;;;;7.88;7.28;;;;;;;19.51;100.00;101216.88;5061402;28;20218;-76
2021/06/05 01:09:36;;;;;;;8.02;7.32;;;;;;;19.37;100.00;101222.47;5055656;28;20595;-76
2021/06/05 01:12:11;;;;;;;7.18;6.60;;;;;;;19.29;100.00;101209.47;5039197;28;20218;-75
2021/06/05 01:14:51;;;;;;;7.35;6.75;;;;;;;19.34;100.00;101209.34;5074629;28;20190;-75
2021/06/05 01:17:32;;;;;;;7.72;7.00;;;;;;;19.33;100.00;101210.47;5057567;28;20771;-75
2021/06/05 01:20:22;;;;;;;7.70;7.00;;;;;;;19.27;100.00;101212.84;5073804;28;20207;-76
2021/06/05 01:23:13;;;;;;;7.18;6.57;;;;;;;19.24;100.00;101205.22;5059540;28;20286;-76
2021/06/05 01:26:07;;;;;;;7.22;6.63;;;;;;;19.12;100.00;101210.50;5074466;28;20222;-74
2021/06/05 01:28:34;;;;;;;7.70;6.90;;;;;;;19.13;100.00;101203.88;5074453;28;20239;-75
2021/06/05 01:31:06;;;;;;;7.47;6.78;;;;;;;19.19;100.00;101208.91;5071959;28;20287;-75
2021/06/05 01:33:34;;;;;;;7.30;6.70;;;;;;;19.18;100.00;101212.81;5056922;28;20194;-74
2021/06/05 01:36:06;;;;;;;7.15;6.53;;;;;;;19.18;100.00;101212.81;5056001;28;20219;-75
2021/06/05 01:38:40;;;;;;;8.10;7.30;;;;;;;19.11;100.00;101206.94;5065874;28;20625;-76
2021/06/05 01:41:11;;;;;;;7.30;6.70;;;;;;;19.12;100.00;101207.72;5069749;28;20214;-76
2021/06/05 01:43:38;;;;;;;7.38;6.68;;;;;;;19.13;100.00;101210.19;5094602;28;20541;-75
2021/06/05 01:46:07;;;;;;;7.68;6.75;;;;;;;19.12;100.00;101208.56;5034908;28;20225;-75
2021/06/05 01:48:43;;;;;;;7.43;6.78;;;;;;;19.12;100.00;101205.81;5043802;28;20195;-75
2021/06/05 01:51:18;;;;;;;7.07;6.57;;;;;;;19.16;100.00;101215.06;5074592;28;20225;-75
2021/06/05 01:53:58;;;;;;;6.88;6.28;;;;;;;19.17;99.33;101205.66;5044050;28;20235;-74
2021/06/05 01:56:32;;;;;;;6.82;6.22;;;;;;;19.22;99.12;101208.28;5057768;28;20672;-75
2021/06/05 01:59:00;;;;;;;7.25;6.55;;;;;;;19.18;98.43;101204.53;5058426;28;20212;-77
2021/06/05 02:01:45;;;;;;;6.70;6.10;;;;;;;19.23;96.62;101200.84;5059072;28;20233;-78
2021/06/05 02:04:15;;;;;;;7.35;6.65;;;;;;;19.23;96.20;101198.91;5059181;28;20182;-76
2021/06/05 02:06:53;;;;;;;7.20;6.53;;;;;;;19.25;96.60;101196.66;5057149;28;20290;-77
2021/06/05 02:09:23;;;;;;;8.68;6.82;;;;;;;19.18;96.67;101203.75;5067214;28;20219;-74
2021/06/05 02:12:08;;;;;;;6.88;6.28;;;;;;;19.10;97.31;101196.22;5056312;28;20221;-74
2021/06/05 02:14:59;;;;;;;7.20;6.60;;;;;;;19.12;96.86;101192.03;5095110;28;20189;-76
2021/06/05 02:17:36;;;;;;;7.28;6.55;;;;;;;19.12;97.28;101194.78;5052152;28;20241;-74
2021/06/05 02:20:10;;;;;;;7.38;6.75;;;;;;;19.03;96.64;101193.94;5094113;28;20566;-76
2021/06/05 02:22:43;;;;;;;7.47;6.88;;;;;;;19.09;96.65;101181.63;5078804;28;20225;-78
2021/06/05 02:25:22;;;;;;;7.55;6.95;;;;;;;19.11;96.43;101190.41;5093768;28;20177;-77
2021/06/05 02:27:52;;;;;;;7.90;7.15;;;;;;;19.03;96.65;101191.16;5094552;28;20284;-76
2021/06/05 02:30:23;;;;;;;8.25;7.50;;;;;;;19.11;96.28;101186.84;5090611;28;20177;-76
2021/06/05 02:32:56;;;;;;;7.90;7.20;;;;;;;19.14;96.01;101191.69;5077435;28;20178;-76
2021/06/05 02:35:41;;;;;;;7.82;7.22;;;;;;;19.17;94.52;101185.56;5087225;27;20217;-75
2021/06/05 02:38:24;;;;;;;7.55;6.85;;;;;;;19.13;95.13;101181.81;5062552;28;20718;-75
2021/06/05 02:41:01;;;;;;;8.48;7.78;;;;;;;19.08;95.27;101182.78;5046344;28;20227;-77
2021/06/05 02:43:31;;;;;;;7.60;7.00;;;;;;;19.16;94.96;101179.25;5071541;28;20178;-77
2021/06/05 02:46:07;;;;;;;8.35;7.57;;;;;;;19.20;94.14;101180.25;5070628;28;20218;-75
2021/06/05 02:48:39;;;;;;;8.68;7.85;;;;;;;19.22;93.71;101171.66;5054368;28;20215;-76
2021/06/05 02:51:12;;;;;;;7.82;7.22;;;;;;;19.21;94.10;101176.38;5067397;28;20711;-75
2021/06/05 02:53:46;;;;;;;8.43;7.63;;;;;;;19.14;94.83;101166.91;5053032;28;20197;-75
2021/06/05 02:56:15;;;;;;;9.13;7.75;;;;;;;19.08;94.76;101173.69;5063528;28;20222;-75
2021/06/05 02:58:41;;;;;;;8.82;8.02;;;;;;;19.13;94.74;101171.63;5053512;28;20203;-76
2021/06/05 03:01:11;;;;;;;9.10;8.35;;;;;;;19.17;94.20;101163.53;5068211;28;20301;-74
2021/06/05 03:03:47;;;;;;;8.35;7.55;;;;;;;19.07;95.20;101164.63;5053311;28;20183;-74
2021/06/05 03:06:17;;;;;;;8.75;7.88;;;;;;;19.12;94.86;101163.66;5052096;28;20214;-75
2021/06/05 03:08:45;;;;;;;9.27;8.23;;;;;;;19.03;95.30;101169.13;5073749;28;20218;-74
2021/06/05 03:11:15;;;;;;;8.88;7.97;;;;;;;19.07;94.85;101163.81;5070907;28;20213;-76
2021/06/05 03:13:45;;;;;;;8.68;7.88;;;;;;;19.12;95.02;101167.25;5075528;28;20184;-75
2021/06/05 03:16:15;;;;;;;8.45;7.75;;;;;;;19.10;95.05;101169.50;5087718;28;20229;-76
2021/06/05 03:18:52;;;;;;;9.00;8.10;;;;;;;19.13;94.79;101171.63;5094738;28;20254;-76
2021/06/05 03:21:19;;;;;;;8.68;7.75;;;;;;;19.12;94.82;101174.69;5109653;28;20237;-76
2021/06/05 03:23:49;;;;;;;9.10;8.30;;;;;;;19.25;94.09;101163.59;5076668;28;20540;-75
2021/06/05 03:26:27;;;;;;;8.70;7.93;;;;;;;19.14;94.59;101161.41;5096637;28;20224;-75
2021/06/05 03:28:58;;;;;;;8.98;8.18;;;;;;;19.15;94.27;101161.09;5080850;28;20210;-77
2021/06/05 03:31:30;;;;;;;8.82;8.05;;;;;;;19.18;93.91;101162.41;5090034;27;20724;-76
2021/06/05 03:34:03;;;;;;;9.13;8.23;;;;;;;19.18;94.08;101163.22;5097606;28;20189;-77
2021/06/05 03:36:36;;;;;;;8.43;7.63;;;;;;;19.09;94.00;101164.31;5081170;28;20228;-77
2021/06/05 03:39:10;;;;;;;8.85;7.95;;;;;;;19.20;93.09;101166.47;5079238;28;20205;-77
2021/06/05 03:41:46;;;;;;;8.85;7.95;;;;;;;19.27;92.82;101168.75;5072800;28;20224;-77
2021/06/05 03:44:21;;;;;;;9.05;8.32;;;;;;;19.24;92.75;101164.72;5099265;28;20278;-76
2021/06/05 03:46:54;;;;;;;9.30;8.50;;;;;;;19.25;92.83;101171.84;5090962;27;20224;-77
2021/06/05 03:49:26;;;;;;;8.80;8.00;;;;;;;19.34;92.49;101173.53;5098732;28;20201;-76
2021/06/05 03:52:06;;;;;;;8.48;7.70;;;;;;;19.38;92.34;101168.19;5079101;28;20311;-76
2021/06/05 03:54:35;;;;;;;8.50;7.80;;;;;;;19.48;91.78;101162.38;5079364;28;20194;-74
2021/06/05 03:57:04;;;;;;;9.07;8.27;;;;;;;19.54;91.45;101172.13;5058190;28;20221;-75
2021/06/05 03:59:36;;;;;;;8.52;7.65;;;;;;;19.59;91.13;101160.97;5077768;28;20221;-75
2021/06/05 04:02:21;;;;;;;8.70;7.90;;;;;;;19.62;90.61;101163.91;5071679;28;20286;-76
2021/06/05 04:04:47;;;;;;;8.73;8.02;;;;;;;19.69;90.04;101170.56;5086071;28;20191;-76
2021/06/05 04:07:15;;;;;;;8.75;7.95;;;;;;;19.69;89.43;101165.06;5056630;28;20210;-77
2021/06/05 04:09:41;;;;;;;10.13;7.82;;;;;;;19.85;88.72;101173.72;5060581;28;20228;-75
2021/06/05 04:12:14;;;;;;;8.27;7.55;;;;;;;19.94;89.02;101161.56;5060192;28;20218;-76
2021/06/05 04:14:46;;;;;;;8.40;7.65;;;;;;;19.76;89.11;101165.41;5077399;28;20186;-76
2021/06/05 04:17:16;;;;;;;8.93;7.45;;;;;;;19.81;88.98;101168.03;5074363;28;20237;-75
2021/06/05 04:19:49;;;;;;;8.57;7.78;;;;;;;19.77;89.79;101168.97;5060036;28;20202;-76
2021/06/05 04:22:19;;;;;;;8.30;7.60;;;;;;;19.92;88.88;101163.84;5043851;28;20222;-76
2021/06/05 04:24:48;;;;;;;8.30;7.60;;;;;;;19.90;88.45;101160.59;5058960;28;20239;-76
2021/06/05 04:27:18;;;;;;;8.15;7.53;;;;;;;19.93;88.48;101168.25;5073466;28;20232;-76
2021/06/05 04:29:47;;;;;;;8.48;7.78;;;;;;;19.83;88.37;101165.75;5057027;28;20191;-78
2021/06/05 04:32:23;;;;;;;9.38;8.40;;;;;;;19.80;89.62;101168.34;5038335;28;20305;-75
2021/06/05 04:35:09;;;;;;;8.82;8.13;;;;;;;19.81;89.29;101168.03;5073407;28;20183;-76
2021/06/05 04:37:36;;;;;;;8.30;7.60;;;;;;;19.90;88.83;101166.13;5087334;28;20848;-74
2021/06/05 04:40:06;;;;;;;8.35;7.65;;;;;;;19.80;89.87;101158.13;5076809;28;20229;-74
2021/06/05 04:42:40;;;;;;;8.85;8.05;;;;;;;19.86;89.61;101165.13;5059429;28;20209;-75
2021/06/05 04:45:09;;;;;;;8.82;7.35;;;;;;;19.93;89.28;101157.22;5087131;28;20295;-75
2021/06/05 04:47:41;;;;;;;8.95;8.15;;;;;;;20.06;88.79;101154.31;5076546;28;20266;-75
2021/06/05 04:50:18;;;;;;;8.05;7.35;;;;;;;20.18;88.57;101161.94;5073919;28;20183;-74
2021/06/05 04:52:45;;;;;;;9.05;7.55;;;;;;;20.25;88.26;101160.31;5077735;28;20662;-75
2021/06/05 04:55:22;;;;;;;8.52;7.82;;;;;;;20.39;87.85;101168.47;5059238;28;20288;-76
2021/06/05 04:57:52;;;;;;;8.13;7.43;;;;;;;20.55;87.57;101162.94;5060705;28;20563;-76
2021/06/05 05:00:22;;;;;;;7.93;7.22;;;;;;;20.62;86.79;101166.06;5059629;28;20263;-76
2021/06/05 05:02:48;;;;;;;8.93;7.82;;;;;;;20.74;86.49;101166.22;5058668;28;20214;-75
2021/06/05 05:05:24;;;;;;;8.13;7.43;;;;;;;20.92;86.05;101167.81;5058340;28;20229;-76
2021/06/05 05:07:54;;;;;;;8.50;7.80;;;;;;;21.01;85.80;101160.31;5060739;28;20297;-76
2021/06/05 05:10:24;;;;;;;8.70;7.85;;;;;;;20.74;85.71;101155.16;5058006;28;20651;-76
2021/06/05 05:12:51;;;;;;;8.25;7.50;;;;;;;20.85;84.92;101156.44;5058903;28;20214;-75
2021/06/05 05:15:23;;;;;;;8.45;7.53;;;;;;;21.10;83.94;101163.84;5041358;28;20194;-76
2021/06/05 05:17:52;;;;;;;7.85;7.20;;;;;;;21.20;83.40;101163.53;5043494;28;20209;-77
2021/06/05 05:20:21;;;;;;;9.68;7.28;;;;;;;21.55;81.81;101160.31;5055225;28;20225;-76
2021/06/05 05:22:52;;;;;;;7.93;7.18;;;;;;;21.88;81.08;101162.91;5041975;28;20598;-76
2021/06/05 05:25:21;;;;;;;7.75;7.05;;;;;;;21.71;80.82;101149.16;5057778;28;20185;-76
2021/06/05 05:27:49;;;;;;;7.88;7.18;;;;;;;21.97;78.54;101160.91;5060005;28;20214;-75
2021/06/05 05:30:26;;;;;;;7.60;6.95;;;;;;;22.20;76.82;101156.72;5057876;28;20568;-75
2021/06/05 05:32:55;;;;;;;7.60;7.00;;;;;;;22.44;77.33;101152.94;5075284;28;20218;-77
2021/06/05 05:35:22;;;;;;;7.72;6.93;;;;;;;22.80;75.42;101151.16;5058088;28;20186;-76
2021/06/05 05:37:54;;;;;;;8.02;7.10;;;;;;;22.63;75.73;101149.69;5042907;28;20206;-76
2021/06/05 05:40:24;;;;;;;7.18;6.47;;;;;;;22.53;75.04;101155.66;5059117;28;20209;-76
2021/06/05 05:42:52;;;;;;;7.72;6.93;;;;;;;22.74;72.76;101151.69;5058160;28;20305;-76
2021/06/05 05:45:25;;;;;;;7.00;6.50;;;;;;;22.95;71.59;101158.84;5090703;28;20191;-76
2021/06/05 05:47:57;;;;;;;7.15;6.45;;;;;;;22.91;72.69;101157.09;5076230;28;20213;-76
2021/06/05 05:50:30;;;;;;;6.80;6.20;;;;;;;23.10;71.48;101155.44;5074367;28;20230;-76
2021/06/05 05:52:59;;;;;;;6.53;5.97;;;;;;;22.77;71.46;101153.78;5058439;28;20189;-75
2021/06/05 05:55:28;;;;;;;7.03;6.43;;;;;;;22.90;72.00;101147.97;5057611;28;20217;-75
2021/06/05 05:58:04;;;;;;;6.68;6.15;;;;;;;22.86;71.72;101155.31;5092092;28;20288;-76
2021/06/05 06:00:34;;;;;;;7.88;7.10;;;;;;;22.71;72.50;101157.09;5091660;28;20208;-76
2021/06/05 06:03:06;;;;;;;6.82;6.20;;;;;;;22.80;71.60;101161.41;5058996;28;20229;-77
2021/06/05 06:05:36;;;;;;;7.93;6.30;;;;;;;22.88;72.97;101157.78;5074775;28;20229;-75
2021/06/05 06:08:05;;;;;;;6.78;6.18;;;;;;;23.06;71.85;101143.41;5091454;28;20201;-75
2021/06/05 06:10:35;;;;;;;7.50;6.10;;;;;;;23.09;73.88;101147.44;5041582;28;20223;-76
2021/06/05 06:13:02;;;;;;;6.50;5.82;;;;;;;23.08;71.12;101146.66;5074536;28;20187;-76
2021/06/05 06:15:29;;;;;;;6.72;6.00;;;;;;;23.18;72.76;101155.31;5091230;28;20226;-76
2021/06/05 06:18:01;;;;;;;6.75;6.00;;;;;;;23.15;71.12;101158.00;5075010;28;20591;-74
2021/06/05 06:20:43;;;;;;;6.13;5.60;;;;;;;23.31;70.70;101158.94;5066212;28;20206;-75
2021/06/05 06:23:17;;;;;;;6.40;5.80;;;;;;;23.53;70.88;101164.06;5075674;28;20549;-75
2021/06/05 06:25:43;;;;;;;6.45;5.95;;;;;;;23.62;70.93;101163.63;5088857;28;20313;-75
2021/06/05 06:28:12;;;;;;;6.40;5.88;;;;;;;23.72;70.46;101157.63;5074077;28;20266;-74
2021/06/05 06:30:41;;;;;;;6.15;5.65;;;;;;;23.28;71.61;101162.41;5073871;28;20308;-76
2021/06/05 06:33:11;;;;;;;6.63;6.03;;;;;;;23.72;69.98;101163.19;5041217;28;20190;-77
2021/06/05 06:35:43;;;;;;;5.70;5.30;;;;;;;23.72;71.57;101157.63;5091328;28;20222;-75
2021/06/05 06:38:21;;;;;;;6.40;5.90;;;;;;;23.39;71.26;101164.38;5077373;28;20584;-76
2021/06/05 06:40:50;;;;;;;6.68;5.97;;;;;;;23.48;71.01;101167.03;5075785;28;20229;-76
2021/06/05 06:43:18;;;;;;;6.80;5.95;;;;;;;23.39;68.76;101160.81;5092516;28;20566;-76
2021/06/05 06:45:57;;;;;;;6.57;5.97;;;;;;;23.50;68.14;101160.00;5089805;28;20228;-76
2021/06/05 06:48:26;;;;;;;6.47;5.88;;;;;;;23.68;67.91;101173.34;5074707;28;20222;-76
2021/06/05 06:50:58;;;;;;;8.02;6.05;;;;;;;23.73;68.14;101159.22;5073230;28;20230;-75
2021/06/05 06:53:24;;;;;;;6.03;5.43;;;;;;;23.93;69.31;101165.84;5073582;28;20239;-75
2021/06/05 06:55:53;;;;;;;6.10;5.55;;;;;;;23.94;69.52;101162.72;5090632;28;20229;-75
2021/06/05 06:58:43;;;;;;;7.18;5.72;;;;;;;24.01;68.27;101162.94;5057518;28;20213;-77
2021/06/05 07:01:15;;;;;;;6.15;5.53;;;;;;;24.00;71.22;101170.44;5061469;28;20303;-76
2021/06/05 07:03:44;;;;;;;9.27;5.72;;;;;;;24.24;69.56;101166.84;5073393;28;20304;-76
2021/06/05 07:06:11;;;;;;;6.30;5.70;;;;;;;24.48;68.77;101171.19;5088650;28;20229;-76
2021/06/05 07:08:39;;;;;;;5.55;5.05;;;;;;;24.50;66.93;101168.06;5090969;28;20229;-78
2021/06/05 07:11:27;;;;;;;6.03;5.50;;;;;;;24.36;66.53;101174.00;5043279;28;20232;-75
2021/06/05 07:14:00;;;;;;;6.47;5.88;;;;;;;24.54;64.91;101177.31;5073542;28;20186;-77
2021/06/05 07:16:34;;;;;;;5.82;5.35;;;;;;;24.71;65.72;101177.84;5073599;28;20336;-77
2021/06/05 07:19:03;;;;;;;6.15;5.65;;;;;;;24.68;65.21;101173.00;5074014;28;20216;-76
2021/06/05 07:21:32;;;;;;;6.90;5.78;;;;;;;24.66;64.30;101172.53;5089135;28;20218;-78
2021/06/05 07:23:59;;;;;;;5.78;5.25;;;;;;;24.53;62.97;101170.94;5089479;28;20549;-76
2021/06/05 07:26:30;;;;;;;6.00;5.50;;;;;;;24.88;61.23;101169.22;5072910;28;20226;-76
2021/06/05 07:29:01;;;;;;;7.07;5.55;;;;;;;24.71;63.42;101163.94;5041587;28;20232;-77
2021/06/05 07:31:32;;;;;;;6.00;5.40;;;;;;;24.82;63.79;101168.66;5072038;28;20225;-77
2021/06/05 07:34:07;;;;;;;5.63;5.13;;;;;;;25.29;62.62;101170.41;5073512;28;20190;-77
2021/06/05 07:36:40;;;;;;;6.80;6.20;;;;;;;25.01;61.78;101173.56;5089500;28;20221;-76
2021/06/05 07:39:10;;;;;;;6.00;5.45;;;;;;;25.38;59.86;101173.00;5090314;28;20238;-77
2021/06/05 07:41:48;;;;;;;6.22;5.63;;;;;;;25.32;60.66;101174.44;5074010;28;20775;-78
2021/06/05 07:44:25;;;;;;;6.25;5.15;;;;;;;25.57;59.12;101171.16;5075078;28;20225;-75
2021/06/05 07:46:57;;;;;;;5.53;5.03;;;;;;;25.55;59.00;101179.06;5055253;28;20226;-76
2021/06/05 07:49:32;;;;;;;6.55;5.35;;;;;;;25.52;57.87;101174.19;5074460;28;20549;-76
2021/06/05 07:52:02;;;;;;;5.65;5.15;;;;;;;25.56;58.90;101175.09;5089866;28;20226;-76
2021/06/05 07:54:28;;;;;;;5.88;5.38;;;;;;;25.51;60.13;101172.56;5057819;28;20220;-76
2021/06/05 07:56:56;;;;;;;5.78;5.07;;;;;;;25.51;58.66;101172.56;5090206;28;20228;-76
2021/06/05 07:59:30;;;;;;;5.78;5.28;;;;;;;25.59;59.98;101168.84;5089755;28;20226;-76
2021/06/05 08:01:59;;;;;;;6.28;5.78;;;;;;;25.40;59.00;101171.50;5055311;28;20324;-77
2021/06/05 08:04:25;;;;;;;5.68;5.28;;;;;;;25.67;58.90;101176.19;5089991;28;20178;-75
2021/06/05 08:06:56;;;;;;;5.50;5.00;;;;;;;25.65;59.50;101179.34;5056691;28;20570;-77
2021/06/05 08:09:31;;;;;;;5.93;5.32;;;;;;;25.37;58.82;101169.44;5089963;28;20202;-76
2021/06/05 08:12:01;;;;;;;5.88;5.35;;;;;;;25.31;59.19;101173.66;5091599;28;20218;-76
2021/06/05 08:14:27;;;;;;;6.13;5.63;;;;;;;25.42;59.38;101174.75;5060698;28;20788;-76
2021/06/05 08:16:56;;;;;;;5.50;5.10;;;;;;;25.37;61.26;101177.78;5092780;28;20263;-75
2021/06/05 08:19:22;;;;;;;5.90;5.40;;;;;;;25.66;60.29;101180.16;5076693;28;20236;-76
2021/06/05 08:22:03;;;;;;;6.07;5.50;;;;;;;25.23;59.33;101171.00;5077468;28;20260;-75
2021/06/05 08:24:36;;;;;;;5.68;5.10;;;;;;;25.52;60.32;101171.41;5097238;28;20254;-76
2021/06/05 08:27:03;;;;;;;5.65;5.15;;;;;;;25.48;59.58;101176.06;5094956;28;20278;-76
2021/06/05 08:29:30;;;;;;;7.38;5.50;;;;;;;25.64;60.21;101176.91;5113566;28;20201;-75
2021/06/05 08:32:07;;;;;;;6.03;5.53;;;;;;;25.71;61.17;101177.88;5094280;28;20221;-75
2021/06/05 08:34:36;;;;;;;5.75;5.22;;;;;;;25.73;61.61;101174.75;5113419;28;20644;-75
2021/06/05 08:37:03;;;;;;;7.72;5.50;;;;;;;25.85;59.48;101172.69;5111675;28;20664;-75
2021/06/05 08:39:32;;;;;;;7.68;5.60;;;;;;;25.80;59.32;101180.50;5113247;28;20216;-75
2021/06/05 08:42:04;;;;;;;5.95;5.35;;;;;;;26.12;60.00;101172.56;5105141;27;20329;-74
2021/06/05 08:44:42;;;;;;;5.65;5.13;;;;;;;26.25;60.72;101170.50;5080319;28;20192;-76
2021/06/05 08:47:35;;;;;;;5.85;5.30;;;;;;;26.53;59.69;101177.50;5111531;28;20596;-76
2021/06/05 08:50:14;;;;;;;5.32;4.90;;;;;;;26.81;59.15;101168.56;5051486;28;20191;-79
2021/06/05 08:53:33;;;;;;;5.50;5.03;;;;;;;27.02;58.82;101174.59;5076081;28;20218;-75
2021/06/05 08:56:21;;;;;;;5.88;5.38;;;;;;;26.72;55.52;101181.94;5078210;28;20221;-77
2021/06/05 08:58:57;;;;;;;6.82;5.75;;;;;;;26.90;55.90;101168.34;5091473;28;20578;-78
2021/06/05 09:01:49;;;;;;;5.75;5.25;;;;;;;27.07;55.63;101177.09;5068843;28;20228;-79
2021/06/05 09:04:28;;;;;;;6.10;5.60;;;;;;;27.22;52.35;101179.78;5063451;28;20660;-77
2021/06/05 09:07:06;;;;;;;5.40;5.00;;;;;;;27.51;52.32;101171.59;5074570;28;20296;-78
2021/06/05 09:09:53;;;;;;;5.93;5.35;;;;;;;27.96;51.00;101151.97;5093210;28;20266;-75
2021/06/05 09:12:27;;;;;;;5.45;5.03;;;;;;;28.30;50.21;101169.31;5066483;28;20240;-76
2021/06/05 09:14:57;;;;;;;5.28;4.80;;;;;;;27.76;49.06;101167.22;5094176;28;20225;-77
2021/06/05 09:17:32;;;;;;;9.55;8.60;;;;;;;27.82;49.54;101173.28;5076040;28;21347;-76
2021/06/05 09:20:05;;;;;;;16.23;14.60;;;;;;;28.30;50.58;101166.50;5111088;28;20221;-77
2021/06/05 09:22:35;;;;;;;5.40;4.90;;;;;;;28.19;48.84;101158.38;5093491;28;20236;-77
2021/06/05 09:25:24;;;;;;;4.85;4.55;;;;;;;28.52;48.24;101151.66;5095273;28;20688;-75
2021/06/05 09:27:50;;;;;;;5.35;4.95;;;;;;;28.67;48.12;101163.88;5095481;28;20209;-78
2021/06/05 09:30:34;;;;;;;5.05;4.65;;;;;;;28.16;47.12;101159.09;5093691;28;20209;-76
2021/06/05 09:33:05;;;;;;;5.10;4.60;;;;;;;28.51;47.37;101166.00;5111223;28;20173;-76
2021/06/05 09:35:45;;;;;;;5.40;5.00;;;;;;;28.32;48.67;101166.16;5109915;28;20221;-79
2021/06/05 09:38:35;;;;;;;4.82;4.43;;;;;;;27.98;48.11;101158.00;5077802;28;20201;-75
2021/06/05 09:41:21;;;;;;;5.65;5.07;;;;;;;28.29;48.78;101173.28;5093556;28;20621;-76
2021/06/05 09:43:51;;;;;;;5.40;4.95;;;;;;;27.98;52.07;101163.59;5087230;28;20191;-77
2021/06/05 09:46:24;;;;;;;5.20;4.78;;;;;;;27.93;48.84;101166.72;5070715;28;20783;-78
2021/06/05 09:49:02;;;;;;;5.32;4.82;;;;;;;28.35;47.90;101166.19;5082670;28;20214;-76
2021/06/05 09:51:39;;;;;;;5.20;4.70;;;;;;;28.47;48.12;101160.34;5093093;28;20247;-75
2021/06/05 09:54:09;;;;;;;5.95;4.97;;;;;;;28.62;47.86;101167.78;5111316;28;20192;-79
2021/06/05 09:56:40;;;;;;;5.20;4.78;;;;;;;28.60;49.72;101164.56;5109642;28;20225;-77
2021/06/05 09:59:18;;;;;;;5.28;4.28;;;;;;;28.77;46.47;101163.97;5078137;28;20217;-77
2021/06/05 10:02:23;;;;;;;4.57;4.18;;;;;;;28.84;46.33;101164.88;5091987;28;20726;-76
2021/06/05 10:05:10;;;;;;;5.25;4.82;;;;;;;28.68;45.23;101164.28;5103469;28;20579;-77
2021/06/05 10:07:40;;;;;;;4.88;4.47;;;;;;;28.69;44.89;101163.09;5092196;28;20218;-76
2021/06/05 10:10:23;;;;;;;5.80;5.30;;;;;;;29.01;45.08;101158.69;5073035;28;20197;-77
2021/06/05 10:12:52;;;;;;;5.40;4.90;;;;;;;29.06;45.65;101161.97;5076709;28;20247;-77
2021/06/05 10:16:12;;;;;;;5.10;4.70;;;;;;;29.25;45.73;101155.38;5089955;27;20237;-78
2021/06/05 10:18:44;;;;;;;5.65;4.93;;;;;;;28.70;46.79;101158.31;5106028;28;20216;-75
2021/06/05 10:21:19;;;;;;;4.90;4.50;;;;;;;29.32;45.90;101159.06;5066283;28;20618;-77
2021/06/05 10:24:33;;;;;;;6.35;5.20;;;;;;;28.54;46.72;101152.06;5097658;28;20661;-77
2021/06/05 10:27:07;;;;;;;5.60;5.00;;;;;;;29.03;46.72;101155.50;5088513;28;20233;-75
2021/06/05 10:29:45;;;;;;;6.18;5.65;;;;;;;29.41;47.75;101150.34;5091314;28;20202;-77
2021/06/05 10:32:17;;;;;;;6.00;5.03;;;;;;;29.03;46.98;101149.88;5072661;28;20222;-77
2021/06/05 10:34:56;;;;;;;6.18;5.05;;;;;;;29.34;47.85;101151.09;5090685;28;20189;-78
2021/06/05 10:37:26;;;;;;;5.50;4.95;;;;;;;28.52;49.32;101151.66;5064716;28;20287;-77
2021/06/05 10:39:53;;;;;;;5.25;4.85;;;;;;;28.62;47.02;101151.00;5057817;28;20210;-79
2021/06/05 10:42:59;;;;;;;5.65;5.15;;;;;;;28.50;47.17;101148.44;5075929;28;20209;-78
2021/06/05 10:45:30;;;;;;;5.38;4.97;;;;;;;28.13;50.53;101154.25;5088325;28;20252;-77
2021/06/05 10:48:28;;;;;;;5.93;5.43;;;;;;;27.89;48.92;101146.28;5079280;28;20228;-78
2021/06/05 10:51:07;;;;;;;6.25;5.10;;;;;;;28.14;49.08;101145.50;5093009;27;20220;-77
2021/06/05 10:54:15;;;;;;;8.23;7.43;;;;;;;28.54;48.77;101140.88;5090606;28;20191;-78
2021/06/05 10:57:12;;;;;;;5.80;5.30;;;;;;;28.82;48.04;101138.47;5042017;28;20223;-77
2021/06/05 10:59:56;;;;;;;6.05;5.55;;;;;;;28.99;46.57;101137.84;5053768;28;20652;-76
2021/06/05 11:02:41;;;;;;;5.43;5.03;;;;;;;29.34;46.66;101128.69;5061143;28;20281;-77
2021/06/05 11:05:23;;;;;;;5.72;5.22;;;;;;;29.06;46.64;101128.38;5088894;28;20237;-77
2021/06/05 11:08:11;;;;;;;5.20;4.80;;;;;;;29.55;44.47;101123.25;5091676;28;20198;-78
2021/06/05 11:11:04;;;;;;;5.70;5.28;;;;;;;29.79;44.29;101117.09;5088724;28;20741;-75
2021/06/05 11:13:37;;;;;;;5.38;4.97;;;;;;;29.78;44.43;101116.28;5089003;28;20659;-78
2021/06/05 11:16:17;;;;;;;5.68;5.18;;;;;;;30.09;43.62;101115.69;5089035;28;20304;-78
2021/06/05 11:18:50;;;;;;;5.68;5.18;;;;;;;29.93;44.06;101112.38;5072615;28;20917;-78
2021/06/05 11:21:25;;;;;;;5.22;4.82;;;;;;;29.97;44.31;101119.63;5083587;28;20247;-77
2021/06/05 11:24:39;;;;;;;6.40;5.13;;;;;;;29.75;44.54;101116.25;5096067;28;20544;-78
2021/06/05 11:27:39;;;;;;;5.85;5.28;;;;;;;29.95;42.64;101110.78;5057667;28;20777;-81
2021/06/05 11:30:45;;;;;;;5.72;5.30;;;;;;;29.52;43.57;101119.25;5090962;28;20201;-78
2021/06/05 11:33:45;;;;;;;5.85;5.15;;;;;;;29.43;44.76;101109.53;5073808;28;20194;-78
2021/06/05 11:37:09;;;;;;;5.85;5.35;;;;;;;29.62;43.73;101115.72;5085980;28;20222;-77
2021/06/05 11:39:44;;;;;;;5.45;4.95;;;;;;;30.10;43.24;101106.88;5090894;28;20796;-77
2021/06/05 11:42:22;;;;;;;5.70;5.20;;;;;;;29.51;44.88;101097.22;5066004;28;20266;-76
2021/06/05 11:45:00;;;;;;;5.60;5.10;;;;;;;30.12;44.04;101098.88;5091670;28;20230;-77
2021/06/05 11:47:59;;;;;;;7.57;6.82;;;;;;;29.88;43.89;101093.91;5093573;28;20296;-77
2021/06/05 11:50:38;;;;;;;6.38;5.60;;;;;;;29.52;43.55;101102.44;4992617;28;20190;-77
2021/06/05 11:53:44;;;;;;;5.70;5.30;;;;;;;29.30;46.88;101088.59;5063174;28;20687;-78
2021/06/05 11:56:45;;;;;;;5.47;5.05;;;;;;;29.34;46.56;101097.88;5057751;28;20213;-78
2021/06/05 11:59:38;;;;;;;5.65;5.15;;;;;;;30.04;44.35;101091.63;5076085;28;20206;-77
2021/06/05 12:02:27;;;;;;;8.15;5.45;;;;;;;30.24;43.95;101090.16;5072948;28;20369;-78